sensor_id;sensor_type;location;lat;lon;timestamp;P1;durP1;ratioP1;P2;durP2;ratioP2
31382;SDS011;18014;49.228;11.102;2024-03-22T00:01:03;18.75;;;13.30;;
31382;SDS011;18014;49.228;11.102;2024-03-22T00:03:04;18.33;;;11.45;;
31382;SDS011;18014;49.228;11.102;2024-03-22T00:05:05;17.75;;;12.27;;
31382;SDS011;18014;49.228;11.102;2024-03-22T00:07:06;22.27;;;13.98;;
31382;SDS011;18014;49.228;11.102;2024-03-22T00:09:07;22.40;;;15.40;;
31382;SDS011;18014;49.228;11.102;2024-03-22T00:11:08;20.10;;;13.32;;
31382;SDS011;18014;49.228;11.102;2024-03-22T00:13:09;21.10;;;13.38;;
31382;SDS011;18014;49.228;11.102;2024-03-22T00:15:10;26.95;;;15.45;;
31382;SDS011;18014;49.228;11.102;2024-03-22T00:17:11;23.80;;;14.00;;
31382;SDS011;18014;49.228;11.102;2024-03-22T00:19:12;23.88;;;13.15;;
31382;SDS011;18014;49.228;11.102;2024-03-22T00:21:13;25.08;;;14.73;;
31382;SDS011;18014;49.228;11.102;2024-03-22T00:23:14;26.35;;;15.95;;
31382;SDS011;18014;49.228;11.102;2024-03-22T00:25:15;27.02;;;14.90;;
31382;SDS011;18014;49.228;11.102;2024-03-22T00:27:16;23.10;;;14.73;;
31382;SDS011;18014;49.228;11.102;2024-03-22T00:29:17;28.08;;;14.98;;
31382;SDS011;18014;49.228;11.102;2024-03-22T00:31:18;23.60;;;15.18;;
31382;SDS011;18014;49.228;11.102;2024-03-22T00:33:19;22.48;;;13.73;;
31382;SDS011;18014;49.228;11.102;2024-03-22T00:35:20;21.80;;;14.70;;
31382;SDS011;18014;49.228;11.102;2024-03-22T00:37:21;24.05;;;14.85;;
31382;SDS011;18014;49.228;11.102;2024-03-22T00:39:21;26.20;;;14.25;;
31382;SDS011;18014;49.228;11.102;2024-03-22T00:41:22;24.10;;;15.18;;
31382;SDS011;18014;49.228;11.102;2024-03-22T00:43:23;25.25;;;15.68;;
31382;SDS011;18014;49.228;11.102;2024-03-22T00:45:25;21.67;;;15.10;;
31382;SDS011;18014;49.228;11.102;2024-03-22T00:47:26;24.25;;;15.63;;
31382;SDS011;18014;49.228;11.102;2024-03-22T00:49:27;21.13;;;14.23;;
31382;SDS011;18014;49.228;11.102;2024-03-22T00:51:28;20.95;;;14.43;;
31382;SDS011;18014;49.228;11.102;2024-03-22T00:53:29;24.00;;;15.05;;
31382;SDS011;18014;49.228;11.102;2024-03-22T00:55:30;23.58;;;15.85;;
31382;SDS011;18014;49.228;11.102;2024-03-22T00:57:31;22.88;;;15.55;;
31382;SDS011;18014;49.228;11.102;2024-03-22T00:59:32;21.98;;;13.27;;
31382;SDS011;18014;49.228;11.102;2024-03-22T01:01:33;26.98;;;16.02;;
31382;SDS011;18014;49.228;11.102;2024-03-22T01:03:34;21.05;;;13.90;;
31382;SDS011;18014;49.228;11.102;2024-03-22T01:05:35;19.92;;;13.60;;
31382;SDS011;18014;49.228;11.102;2024-03-22T01:07:36;21.50;;;12.88;;
31382;SDS011;18014;49.228;11.102;2024-03-22T01:09:37;18.00;;;12.15;;
31382;SDS011;18014;49.228;11.102;2024-03-22T01:11:38;17.38;;;11.48;;
31382;SDS011;18014;49.228;11.102;2024-03-22T01:13:40;19.65;;;12.13;;
31382;SDS011;18014;49.228;11.102;2024-03-22T01:15:41;18.75;;;11.70;;
31382;SDS011;18014;49.228;11.102;2024-03-22T01:17:42;20.35;;;12.95;;
31382;SDS011;18014;49.228;11.102;2024-03-22T01:19:43;19.83;;;13.00;;
31382;SDS011;18014;49.228;11.102;2024-03-22T01:21:44;18.38;;;12.55;;
31382;SDS011;18014;49.228;11.102;2024-03-22T01:23:45;22.88;;;14.60;;
31382;SDS011;18014;49.228;11.102;2024-03-22T01:25:46;21.45;;;13.10;;
31382;SDS011;18014;49.228;11.102;2024-03-22T01:27:47;19.88;;;12.65;;
31382;SDS011;18014;49.228;11.102;2024-03-22T01:29:48;22.00;;;14.27;;
31382;SDS011;18014;49.228;11.102;2024-03-22T01:31:48;21.10;;;13.23;;
31382;SDS011;18014;49.228;11.102;2024-03-22T01:33:49;24.42;;;14.80;;
31382;SDS011;18014;49.228;11.102;2024-03-22T01:35:51;22.50;;;15.40;;
31382;SDS011;18014;49.228;11.102;2024-03-22T01:37:52;14.80;;;11.60;;
31382;SDS011;18014;49.228;11.102;2024-03-22T01:39:53;19.52;;;13.05;;
31382;SDS011;18014;49.228;11.102;2024-03-22T01:41:53;18.58;;;13.95;;
31382;SDS011;18014;49.228;11.102;2024-03-22T01:43:54;22.63;;;14.07;;
31382;SDS011;18014;49.228;11.102;2024-03-22T01:45:55;23.30;;;14.50;;
31382;SDS011;18014;49.228;11.102;2024-03-22T01:47:56;24.58;;;15.23;;
31382;SDS011;18014;49.228;11.102;2024-03-22T01:49:57;16.63;;;11.55;;
31382;SDS011;18014;49.228;11.102;2024-03-22T01:51:59;22.63;;;14.88;;
31382;SDS011;18014;49.228;11.102;2024-03-22T01:54:01;29.73;;;17.85;;
31382;SDS011;18014;49.228;11.102;2024-03-22T01:56:03;18.95;;;12.25;;
31382;SDS011;18014;49.228;11.102;2024-03-22T01:58:05;18.17;;;13.10;;
31382;SDS011;18014;49.228;11.102;2024-03-22T02:00:07;19.40;;;13.52;;
31382;SDS011;18014;49.228;11.102;2024-03-22T02:02:09;21.73;;;13.75;;
31382;SDS011;18014;49.228;11.102;2024-03-22T02:04:11;22.97;;;13.73;;
31382;SDS011;18014;49.228;11.102;2024-03-22T02:06:12;21.05;;;12.40;;
31382;SDS011;18014;49.228;11.102;2024-03-22T02:08:13;23.40;;;16.05;;
31382;SDS011;18014;49.228;11.102;2024-03-22T02:10:14;23.23;;;15.10;;
31382;SDS011;18014;49.228;11.102;2024-03-22T02:12:16;19.48;;;13.77;;
31382;SDS011;18014;49.228;11.102;2024-03-22T02:14:17;20.48;;;13.38;;
31382;SDS011;18014;49.228;11.102;2024-03-22T02:16:18;22.67;;;14.90;;
31382;SDS011;18014;49.228;11.102;2024-03-22T02:18:19;23.17;;;15.38;;
31382;SDS011;18014;49.228;11.102;2024-03-22T02:20:20;18.63;;;12.70;;
31382;SDS011;18014;49.228;11.102;2024-03-22T02:22:21;20.20;;;13.73;;
31382;SDS011;18014;49.228;11.102;2024-03-22T02:24:22;22.73;;;15.20;;
31382;SDS011;18014;49.228;11.102;2024-03-22T02:26:22;20.17;;;14.38;;
31382;SDS011;18014;49.228;11.102;2024-03-22T02:28:23;20.00;;;14.43;;
31382;SDS011;18014;49.228;11.102;2024-03-22T02:30:24;23.42;;;15.32;;
31382;SDS011;18014;49.228;11.102;2024-03-22T02:32:25;17.17;;;12.27;;
31382;SDS011;18014;49.228;11.102;2024-03-22T02:34:26;17.90;;;11.98;;
31382;SDS011;18014;49.228;11.102;2024-03-22T02:36:27;22.52;;;15.80;;
31382;SDS011;18014;49.228;11.102;2024-03-22T02:38:28;19.85;;;14.98;;
31382;SDS011;18014;49.228;11.102;2024-03-22T02:40:29;22.63;;;15.05;;
31382;SDS011;18014;49.228;11.102;2024-03-22T02:42:30;23.88;;;14.75;;
31382;SDS011;18014;49.228;11.102;2024-03-22T02:44:31;20.98;;;14.13;;
31382;SDS011;18014;49.228;11.102;2024-03-22T02:46:32;25.10;;;16.08;;
31382;SDS011;18014;49.228;11.102;2024-03-22T02:48:34;22.55;;;15.80;;
31382;SDS011;18014;49.228;11.102;2024-03-22T02:50:38;22.30;;;14.55;;
31382;SDS011;18014;49.228;11.102;2024-03-22T02:52:39;21.20;;;13.75;;
31382;SDS011;18014;49.228;11.102;2024-03-22T02:54:40;23.35;;;14.07;;
31382;SDS011;18014;49.228;11.102;2024-03-22T02:56:41;24.92;;;15.32;;
31382;SDS011;18014;49.228;11.102;2024-03-22T02:58:42;20.75;;;14.32;;
31382;SDS011;18014;49.228;11.102;2024-03-22T03:00:43;22.60;;;14.52;;
31382;SDS011;18014;49.228;11.102;2024-03-22T03:02:47;19.63;;;14.15;;
31382;SDS011;18014;49.228;11.102;2024-03-22T03:04:48;32.00;;;13.27;;
31382;SDS011;18014;49.228;11.102;2024-03-22T03:06:49;21.98;;;13.07;;
31382;SDS011;18014;49.228;11.102;2024-03-22T03:08:50;22.88;;;15.02;;
31382;SDS011;18014;49.228;11.102;2024-03-22T03:10:51;22.25;;;14.60;;
31382;SDS011;18014;49.228;11.102;2024-03-22T03:12:55;21.15;;;13.55;;
31382;SDS011;18014;49.228;11.102;2024-03-22T03:14:56;19.38;;;13.50;;
31382;SDS011;18014;49.228;11.102;2024-03-22T03:16:57;17.40;;;11.70;;
31382;SDS011;18014;49.228;11.102;2024-03-22T03:18:58;17.55;;;11.93;;
31382;SDS011;18014;49.228;11.102;2024-03-22T03:21:00;19.42;;;12.95;;
31382;SDS011;18014;49.228;11.102;2024-03-22T03:23:01;18.63;;;12.85;;
31382;SDS011;18014;49.228;11.102;2024-03-22T03:25:03;22.77;;;14.05;;
31382;SDS011;18014;49.228;11.102;2024-03-22T03:27:04;23.20;;;14.52;;
31382;SDS011;18014;49.228;11.102;2024-03-22T03:29:05;21.73;;;13.48;;
31382;SDS011;18014;49.228;11.102;2024-03-22T03:31:06;24.77;;;15.85;;
31382;SDS011;18014;49.228;11.102;2024-03-22T03:33:07;25.98;;;15.52;;
31382;SDS011;18014;49.228;11.102;2024-03-22T03:35:08;19.25;;;12.38;;
31382;SDS011;18014;49.228;11.102;2024-03-22T03:37:09;26.75;;;16.20;;
31382;SDS011;18014;49.228;11.102;2024-03-22T03:39:10;24.17;;;15.45;;
31382;SDS011;18014;49.228;11.102;2024-03-22T03:41:11;25.60;;;14.68;;
31382;SDS011;18014;49.228;11.102;2024-03-22T03:43:12;24.40;;;15.48;;
31382;SDS011;18014;49.228;11.102;2024-03-22T03:45:13;23.30;;;13.65;;
31382;SDS011;18014;49.228;11.102;2024-03-22T03:47:14;24.00;;;14.60;;
31382;SDS011;18014;49.228;11.102;2024-03-22T03:49:15;26.13;;;15.77;;
31382;SDS011;18014;49.228;11.102;2024-03-22T03:51:16;17.98;;;12.63;;
31382;SDS011;18014;49.228;11.102;2024-03-22T03:53:17;21.38;;;14.82;;
31382;SDS011;18014;49.228;11.102;2024-03-22T03:55:18;22.00;;;13.93;;
31382;SDS011;18014;49.228;11.102;2024-03-22T03:57:19;23.33;;;13.98;;
31382;SDS011;18014;49.228;11.102;2024-03-22T03:59:20;23.75;;;14.48;;
31382;SDS011;18014;49.228;11.102;2024-03-22T04:01:21;23.20;;;14.07;;
31382;SDS011;18014;49.228;11.102;2024-03-22T04:03:23;26.40;;;15.30;;
31382;SDS011;18014;49.228;11.102;2024-03-22T04:05:24;25.17;;;15.15;;
31382;SDS011;18014;49.228;11.102;2024-03-22T04:07:25;28.10;;;15.73;;
31382;SDS011;18014;49.228;11.102;2024-03-22T04:09:26;21.92;;;13.88;;
31382;SDS011;18014;49.228;11.102;2024-03-22T04:11:27;22.15;;;15.20;;
31382;SDS011;18014;49.228;11.102;2024-03-22T04:13:28;24.65;;;14.70;;
31382;SDS011;18014;49.228;11.102;2024-03-22T04:15:29;24.05;;;14.90;;
31382;SDS011;18014;49.228;11.102;2024-03-22T04:17:34;27.40;;;15.35;;
31382;SDS011;18014;49.228;11.102;2024-03-22T04:19:35;29.83;;;16.75;;
31382;SDS011;18014;49.228;11.102;2024-03-22T04:21:36;26.02;;;15.68;;
31382;SDS011;18014;49.228;11.102;2024-03-22T04:23:37;24.40;;;14.68;;
31382;SDS011;18014;49.228;11.102;2024-03-22T04:25:38;24.02;;;15.30;;
31382;SDS011;18014;49.228;11.102;2024-03-22T04:27:39;24.50;;;14.23;;
31382;SDS011;18014;49.228;11.102;2024-03-22T04:29:40;25.98;;;15.02;;
31382;SDS011;18014;49.228;11.102;2024-03-22T04:31:41;28.15;;;14.48;;
31382;SDS011;18014;49.228;11.102;2024-03-22T04:33:42;24.30;;;15.13;;
31382;SDS011;18014;49.228;11.102;2024-03-22T04:35:45;22.70;;;14.52;;
31382;SDS011;18014;49.228;11.102;2024-03-22T04:37:46;28.48;;;14.65;;
31382;SDS011;18014;49.228;11.102;2024-03-22T04:39:47;24.25;;;15.45;;
31382;SDS011;18014;49.228;11.102;2024-03-22T04:41:48;24.88;;;14.32;;
31382;SDS011;18014;49.228;11.102;2024-03-22T04:43:49;20.55;;;14.48;;
31382;SDS011;18014;49.228;11.102;2024-03-22T04:45:50;22.08;;;13.88;;
31382;SDS011;18014;49.228;11.102;2024-03-22T04:47:51;22.77;;;13.60;;
31382;SDS011;18014;49.228;11.102;2024-03-22T04:49:52;22.92;;;15.15;;
31382;SDS011;18014;49.228;11.102;2024-03-22T04:51:53;26.27;;;15.93;;
31382;SDS011;18014;49.228;11.102;2024-03-22T04:53:54;22.95;;;13.27;;
31382;SDS011;18014;49.228;11.102;2024-03-22T04:55:55;30.02;;;16.27;;
31382;SDS011;18014;49.228;11.102;2024-03-22T04:57:56;22.98;;;14.55;;
31382;SDS011;18014;49.228;11.102;2024-03-22T04:59:57;24.85;;;15.10;;
31382;SDS011;18014;49.228;11.102;2024-03-22T05:01:58;24.42;;;14.20;;
31382;SDS011;18014;49.228;11.102;2024-03-22T05:03:59;28.70;;;16.75;;
31382;SDS011;18014;49.228;11.102;2024-03-22T05:06:00;21.48;;;14.15;;
31382;SDS011;18014;49.228;11.102;2024-03-22T05:08:03;24.48;;;16.08;;
31382;SDS011;18014;49.228;11.102;2024-03-22T05:10:05;23.10;;;14.38;;
31382;SDS011;18014;49.228;11.102;2024-03-22T05:12:06;25.00;;;15.32;;
31382;SDS011;18014;49.228;11.102;2024-03-22T05:14:07;26.40;;;16.55;;
31382;SDS011;18014;49.228;11.102;2024-03-22T05:16:08;26.80;;;15.85;;
31382;SDS011;18014;49.228;11.102;2024-03-22T05:18:11;26.30;;;16.08;;
31382;SDS011;18014;49.228;11.102;2024-03-22T05:20:12;28.33;;;16.58;;
31382;SDS011;18014;49.228;11.102;2024-03-22T05:22:13;23.95;;;13.88;;
31382;SDS011;18014;49.228;11.102;2024-03-22T05:24:14;28.13;;;16.08;;
31382;SDS011;18014;49.228;11.102;2024-03-22T05:26:15;25.10;;;16.42;;
31382;SDS011;18014;49.228;11.102;2024-03-22T05:28:18;24.88;;;14.48;;
31382;SDS011;18014;49.228;11.102;2024-03-22T05:30:19;25.02;;;15.27;;
31382;SDS011;18014;49.228;11.102;2024-03-22T05:32:20;22.25;;;14.80;;
31382;SDS011;18014;49.228;11.102;2024-03-22T05:34:21;23.00;;;14.85;;
31382;SDS011;18014;49.228;11.102;2024-03-22T05:36:22;26.08;;;16.02;;
31382;SDS011;18014;49.228;11.102;2024-03-22T05:38:23;28.23;;;16.13;;
31382;SDS011;18014;49.228;11.102;2024-03-22T05:40:24;28.55;;;17.65;;
31382;SDS011;18014;49.228;11.102;2024-03-22T05:42:25;26.30;;;16.55;;
31382;SDS011;18014;49.228;11.102;2024-03-22T05:44:26;30.10;;;16.90;;
31382;SDS011;18014;49.228;11.102;2024-03-22T05:46:27;24.95;;;15.32;;
31382;SDS011;18014;49.228;11.102;2024-03-22T05:48:28;28.40;;;15.50;;
31382;SDS011;18014;49.228;11.102;2024-03-22T05:50:29;26.95;;;15.13;;
31382;SDS011;18014;49.228;11.102;2024-03-22T05:52:30;30.08;;;16.77;;
31382;SDS011;18014;49.228;11.102;2024-03-22T05:54:31;26.45;;;16.75;;
31382;SDS011;18014;49.228;11.102;2024-03-22T05:56:32;26.65;;;16.27;;
31382;SDS011;18014;49.228;11.102;2024-03-22T05:58:34;25.52;;;16.02;;
31382;SDS011;18014;49.228;11.102;2024-03-22T06:00:36;22.10;;;15.02;;
31382;SDS011;18014;49.228;11.102;2024-03-22T06:02:37;28.33;;;16.25;;
31382;SDS011;18014;49.228;11.102;2024-03-22T06:04:38;29.17;;;17.10;;
31382;SDS011;18014;49.228;11.102;2024-03-22T06:06:39;25.73;;;16.27;;
31382;SDS011;18014;49.228;11.102;2024-03-22T06:08:40;27.85;;;17.33;;
31382;SDS011;18014;49.228;11.102;2024-03-22T06:10:43;24.33;;;15.10;;
31382;SDS011;18014;49.228;11.102;2024-03-22T06:12:45;24.67;;;15.63;;
31382;SDS011;18014;49.228;11.102;2024-03-22T06:14:47;28.23;;;16.52;;
31382;SDS011;18014;49.228;11.102;2024-03-22T06:16:48;26.75;;;16.02;;
31382;SDS011;18014;49.228;11.102;2024-03-22T06:18:49;25.52;;;15.55;;
31382;SDS011;18014;49.228;11.102;2024-03-22T06:20:50;27.02;;;16.00;;
31382;SDS011;18014;49.228;11.102;2024-03-22T06:22:54;23.80;;;15.98;;
31382;SDS011;18014;49.228;11.102;2024-03-22T06:24:55;27.75;;;17.60;;
31382;SDS011;18014;49.228;11.102;2024-03-22T06:26:56;31.17;;;16.67;;
31382;SDS011;18014;49.228;11.102;2024-03-22T06:28:57;25.35;;;15.75;;
31382;SDS011;18014;49.228;11.102;2024-03-22T06:30:58;26.30;;;16.13;;
31382;SDS011;18014;49.228;11.102;2024-03-22T06:32:58;24.85;;;14.90;;
31382;SDS011;18014;49.228;11.102;2024-03-22T06:34:59;25.33;;;16.17;;
31382;SDS011;18014;49.228;11.102;2024-03-22T06:37:00;24.88;;;14.63;;
31382;SDS011;18014;49.228;11.102;2024-03-22T06:39:02;21.15;;;14.90;;
31382;SDS011;18014;49.228;11.102;2024-03-22T06:41:06;25.58;;;16.60;;
31382;SDS011;18014;49.228;11.102;2024-03-22T06:43:07;25.10;;;16.00;;
31382;SDS011;18014;49.228;11.102;2024-03-22T06:45:09;26.75;;;15.68;;
31382;SDS011;18014;49.228;11.102;2024-03-22T06:47:10;28.27;;;15.35;;
31382;SDS011;18014;49.228;11.102;2024-03-22T06:49:11;26.15;;;15.93;;
31382;SDS011;18014;49.228;11.102;2024-03-22T06:51:12;22.50;;;14.95;;
31382;SDS011;18014;49.228;11.102;2024-03-22T06:53:13;24.35;;;15.98;;
31382;SDS011;18014;49.228;11.102;2024-03-22T06:55:13;23.90;;;14.77;;
31382;SDS011;18014;49.228;11.102;2024-03-22T06:57:14;25.60;;;15.32;;
31382;SDS011;18014;49.228;11.102;2024-03-22T06:59:16;22.75;;;15.57;;
31382;SDS011;18014;49.228;11.102;2024-03-22T07:01:17;22.95;;;14.23;;
31382;SDS011;18014;49.228;11.102;2024-03-22T07:03:18;22.92;;;15.93;;
31382;SDS011;18014;49.228;11.102;2024-03-22T07:05:19;23.00;;;15.80;;
31382;SDS011;18014;49.228;11.102;2024-03-22T07:07:21;23.23;;;15.13;;
31382;SDS011;18014;49.228;11.102;2024-03-22T07:09:22;23.40;;;15.50;;
31382;SDS011;18014;49.228;11.102;2024-03-22T07:11:23;24.67;;;15.73;;
31382;SDS011;18014;49.228;11.102;2024-03-22T07:13:24;25.63;;;16.23;;
31382;SDS011;18014;49.228;11.102;2024-03-22T07:15:25;25.08;;;17.48;;
31382;SDS011;18014;49.228;11.102;2024-03-22T07:17:26;26.05;;;18.10;;
31382;SDS011;18014;49.228;11.102;2024-03-22T07:19:28;24.80;;;15.98;;
31382;SDS011;18014;49.228;11.102;2024-03-22T07:21:29;28.13;;;16.80;;
31382;SDS011;18014;49.228;11.102;2024-03-22T07:23:30;21.80;;;14.60;;
31382;SDS011;18014;49.228;11.102;2024-03-22T07:25:32;22.33;;;14.10;;
31382;SDS011;18014;49.228;11.102;2024-03-22T07:27:33;19.77;;;13.90;;
31382;SDS011;18014;49.228;11.102;2024-03-22T07:29:34;20.48;;;13.43;;
31382;SDS011;18014;49.228;11.102;2024-03-22T07:31:35;23.85;;;14.65;;
31382;SDS011;18014;49.228;11.102;2024-03-22T07:33:36;19.20;;;13.10;;
31382;SDS011;18014;49.228;11.102;2024-03-22T07:35:39;24.02;;;13.55;;
31382;SDS011;18014;49.228;11.102;2024-03-22T07:37:40;20.83;;;13.35;;
31382;SDS011;18014;49.228;11.102;2024-03-22T07:39:41;21.17;;;13.57;;
31382;SDS011;18014;49.228;11.102;2024-03-22T07:41:42;19.17;;;12.07;;
31382;SDS011;18014;49.228;11.102;2024-03-22T07:43:43;21.50;;;12.32;;
31382;SDS011;18014;49.228;11.102;2024-03-22T07:45:44;18.98;;;11.73;;
31382;SDS011;18014;49.228;11.102;2024-03-22T07:47:45;21.92;;;11.82;;
31382;SDS011;18014;49.228;11.102;2024-03-22T07:49:46;20.38;;;13.80;;
31382;SDS011;18014;49.228;11.102;2024-03-22T07:51:47;21.85;;;13.27;;
31382;SDS011;18014;49.228;11.102;2024-03-22T07:53:48;23.10;;;13.30;;
31382;SDS011;18014;49.228;11.102;2024-03-22T07:55:49;17.75;;;11.48;;
31382;SDS011;18014;49.228;11.102;2024-03-22T07:57:50;20.90;;;12.07;;
31382;SDS011;18014;49.228;11.102;2024-03-22T07:59:51;19.20;;;12.00;;
31382;SDS011;18014;49.228;11.102;2024-03-22T08:01:52;17.50;;;12.63;;
31382;SDS011;18014;49.228;11.102;2024-03-22T08:03:53;19.02;;;13.15;;
31382;SDS011;18014;49.228;11.102;2024-03-22T08:05:54;20.58;;;12.63;;
31382;SDS011;18014;49.228;11.102;2024-03-22T08:07:55;20.83;;;12.23;;
31382;SDS011;18014;49.228;11.102;2024-03-22T08:09:55;20.33;;;13.13;;
31382;SDS011;18014;49.228;11.102;2024-03-22T08:11:58;20.10;;;13.70;;
31382;SDS011;18014;49.228;11.102;2024-03-22T08:13:59;20.05;;;12.80;;
31382;SDS011;18014;49.228;11.102;2024-03-22T08:16:03;23.38;;;13.77;;
31382;SDS011;18014;49.228;11.102;2024-03-22T08:18:05;20.15;;;13.35;;
31382;SDS011;18014;49.228;11.102;2024-03-22T08:20:06;22.40;;;14.10;;
31382;SDS011;18014;49.228;11.102;2024-03-22T08:22:07;20.27;;;12.98;;
31382;SDS011;18014;49.228;11.102;2024-03-22T08:24:08;21.13;;;14.25;;
31382;SDS011;18014;49.228;11.102;2024-03-22T08:26:09;21.98;;;14.45;;
31382;SDS011;18014;49.228;11.102;2024-03-22T08:28:10;21.92;;;13.70;;
31382;SDS011;18014;49.228;11.102;2024-03-22T08:30:13;22.98;;;13.20;;
31382;SDS011;18014;49.228;11.102;2024-03-22T08:32:15;19.55;;;13.00;;
31382;SDS011;18014;49.228;11.102;2024-03-22T08:34:15;23.27;;;13.90;;
31382;SDS011;18014;49.228;11.102;2024-03-22T08:36:16;18.77;;;13.05;;
31382;SDS011;18014;49.228;11.102;2024-03-22T08:38:17;22.40;;;14.15;;
31382;SDS011;18014;49.228;11.102;2024-03-22T08:40:18;20.73;;;12.95;;
31382;SDS011;18014;49.228;11.102;2024-03-22T08:42:19;20.17;;;13.68;;
31382;SDS011;18014;49.228;11.102;2024-03-22T08:44:20;21.08;;;13.10;;
31382;SDS011;18014;49.228;11.102;2024-03-22T08:46:21;19.60;;;13.23;;
31382;SDS011;18014;49.228;11.102;2024-03-22T08:48:24;16.20;;;11.15;;
31382;SDS011;18014;49.228;11.102;2024-03-22T08:50:25;24.90;;;12.25;;
31382;SDS011;18014;49.228;11.102;2024-03-22T08:52:26;21.00;;;12.52;;
31382;SDS011;18014;49.228;11.102;2024-03-22T08:54:27;21.90;;;12.90;;
31382;SDS011;18014;49.228;11.102;2024-03-22T08:56:28;20.35;;;12.45;;
31382;SDS011;18014;49.228;11.102;2024-03-22T08:58:29;22.52;;;12.35;;
31382;SDS011;18014;49.228;11.102;2024-03-22T09:00:30;20.95;;;11.75;;
31382;SDS011;18014;49.228;11.102;2024-03-22T09:02:31;18.38;;;12.32;;
31382;SDS011;18014;49.228;11.102;2024-03-22T09:04:32;20.98;;;12.50;;
31382;SDS011;18014;49.228;11.102;2024-03-22T09:06:33;16.95;;;11.52;;
31382;SDS011;18014;49.228;11.102;2024-03-22T09:08:34;23.33;;;12.88;;
31382;SDS011;18014;49.228;11.102;2024-03-22T09:10:35;17.50;;;11.73;;
31382;SDS011;18014;49.228;11.102;2024-03-22T09:12:36;16.60;;;11.05;;
31382;SDS011;18014;49.228;11.102;2024-03-22T09:14:37;20.00;;;12.30;;
31382;SDS011;18014;49.228;11.102;2024-03-22T09:16:38;18.60;;;10.45;;
31382;SDS011;18014;49.228;11.102;2024-03-22T09:18:40;21.03;;;12.07;;
31382;SDS011;18014;49.228;11.102;2024-03-22T09:20:41;17.70;;;11.10;;
31382;SDS011;18014;49.228;11.102;2024-03-22T09:22:42;18.67;;;10.38;;
31382;SDS011;18014;49.228;11.102;2024-03-22T09:24:43;17.70;;;11.38;;
31382;SDS011;18014;49.228;11.102;2024-03-22T09:26:44;17.10;;;10.73;;
31382;SDS011;18014;49.228;11.102;2024-03-22T09:28:48;20.40;;;11.30;;
31382;SDS011;18014;49.228;11.102;2024-03-22T09:30:50;19.42;;;10.68;;
31382;SDS011;18014;49.228;11.102;2024-03-22T09:32:51;18.05;;;10.00;;
31382;SDS011;18014;49.228;11.102;2024-03-22T09:34:52;16.65;;;10.07;;
31382;SDS011;18014;49.228;11.102;2024-03-22T09:36:53;13.63;;;9.10;;
31382;SDS011;18014;49.228;11.102;2024-03-22T09:38:54;15.80;;;9.07;;
31382;SDS011;18014;49.228;11.102;2024-03-22T09:40:55;17.67;;;9.93;;
31382;SDS011;18014;49.228;11.102;2024-03-22T09:42:58;15.90;;;9.32;;
31382;SDS011;18014;49.228;11.102;2024-03-22T09:45:06;13.05;;;8.55;;
31382;SDS011;18014;49.228;11.102;2024-03-22T09:47:10;14.88;;;8.65;;
31382;SDS011;18014;49.228;11.102;2024-03-22T09:49:14;13.02;;;8.43;;
31382;SDS011;18014;49.228;11.102;2024-03-22T09:51:16;14.68;;;8.70;;
31382;SDS011;18014;49.228;11.102;2024-03-22T09:53:20;12.18;;;7.38;;
31382;SDS011;18014;49.228;11.102;2024-03-22T09:55:25;16.95;;;8.90;;
31382;SDS011;18014;49.228;11.102;2024-03-22T09:57:27;10.38;;;7.13;;
31382;SDS011;18014;49.228;11.102;2024-03-22T09:59:29;14.67;;;8.00;;
31382;SDS011;18014;49.228;11.102;2024-03-22T10:01:30;11.98;;;7.47;;
31382;SDS011;18014;49.228;11.102;2024-03-22T10:03:32;12.55;;;8.00;;
31382;SDS011;18014;49.228;11.102;2024-03-22T10:05:33;11.82;;;6.72;;
31382;SDS011;18014;49.228;11.102;2024-03-22T10:07:34;14.07;;;7.90;;
31382;SDS011;18014;49.228;11.102;2024-03-22T10:09:35;12.85;;;7.40;;
31382;SDS011;18014;49.228;11.102;2024-03-22T10:11:36;11.40;;;7.07;;
31382;SDS011;18014;49.228;11.102;2024-03-22T10:13:37;11.05;;;6.75;;
31382;SDS011;18014;49.228;11.102;2024-03-22T10:15:38;11.95;;;7.10;;
31382;SDS011;18014;49.228;11.102;2024-03-22T10:17:39;10.68;;;6.22;;
31382;SDS011;18014;49.228;11.102;2024-03-22T10:19:41;9.88;;;6.30;;
31382;SDS011;18014;49.228;11.102;2024-03-22T10:21:42;11.70;;;6.38;;
31382;SDS011;18014;49.228;11.102;2024-03-22T10:23:43;11.43;;;6.57;;
31382;SDS011;18014;49.228;11.102;2024-03-22T10:25:47;7.13;;;5.20;;
31382;SDS011;18014;49.228;11.102;2024-03-22T10:27:48;9.25;;;5.82;;
31382;SDS011;18014;49.228;11.102;2024-03-22T10:29:48;10.45;;;5.80;;
31382;SDS011;18014;49.228;11.102;2024-03-22T10:31:50;7.50;;;5.43;;
31382;SDS011;18014;49.228;11.102;2024-03-22T10:33:52;7.85;;;4.53;;
31382;SDS011;18014;49.228;11.102;2024-03-22T10:35:55;9.18;;;5.70;;
31382;SDS011;18014;49.228;11.102;2024-03-22T10:37:56;8.52;;;6.15;;
31382;SDS011;18014;49.228;11.102;2024-03-22T10:39:57;9.40;;;5.97;;
31382;SDS011;18014;49.228;11.102;2024-03-22T10:42:01;8.98;;;5.57;;
31382;SDS011;18014;49.228;11.102;2024-03-22T10:44:03;7.50;;;5.03;;
31382;SDS011;18014;49.228;11.102;2024-03-22T10:46:05;9.73;;;5.90;;
31382;SDS011;18014;49.228;11.102;2024-03-22T10:48:10;7.15;;;4.70;;
31382;SDS011;18014;49.228;11.102;2024-03-22T10:50:12;10.48;;;5.65;;
31382;SDS011;18014;49.228;11.102;2024-03-22T10:52:13;7.63;;;5.13;;
31382;SDS011;18014;49.228;11.102;2024-03-22T10:54:17;7.07;;;5.00;;
31382;SDS011;18014;49.228;11.102;2024-03-22T10:56:21;8.05;;;5.63;;
31382;SDS011;18014;49.228;11.102;2024-03-22T10:58:24;9.18;;;5.40;;
31382;SDS011;18014;49.228;11.102;2024-03-22T11:00:34;10.07;;;5.78;;
31382;SDS011;18014;49.228;11.102;2024-03-22T11:02:36;8.45;;;5.00;;
31382;SDS011;18014;49.228;11.102;2024-03-22T11:04:38;6.95;;;5.03;;
31382;SDS011;18014;49.228;11.102;2024-03-22T11:06:39;8.18;;;5.30;;
31382;SDS011;18014;49.228;11.102;2024-03-22T11:08:40;10.48;;;5.55;;
31382;SDS011;18014;49.228;11.102;2024-03-22T11:10:41;8.77;;;5.07;;
31382;SDS011;18014;49.228;11.102;2024-03-22T11:12:43;9.52;;;5.78;;
31382;SDS011;18014;49.228;11.102;2024-03-22T11:14:45;9.93;;;5.72;;
31382;SDS011;18014;49.228;11.102;2024-03-22T11:16:47;11.10;;;7.60;;
31382;SDS011;18014;49.228;11.102;2024-03-22T11:18:48;8.93;;;5.63;;
31382;SDS011;18014;49.228;11.102;2024-03-22T11:20:49;11.60;;;6.30;;
31382;SDS011;18014;49.228;11.102;2024-03-22T11:22:51;8.27;;;6.30;;
31382;SDS011;18014;49.228;11.102;2024-03-22T11:24:52;10.40;;;6.20;;
31382;SDS011;18014;49.228;11.102;2024-03-22T11:26:53;9.20;;;5.50;;
31382;SDS011;18014;49.228;11.102;2024-03-22T11:28:54;7.50;;;5.13;;
31382;SDS011;18014;49.228;11.102;2024-03-22T11:30:55;6.15;;;4.93;;
31382;SDS011;18014;49.228;11.102;2024-03-22T11:32:56;6.18;;;4.95;;
31382;SDS011;18014;49.228;11.102;2024-03-22T11:34:57;7.97;;;4.97;;
31382;SDS011;18014;49.228;11.102;2024-03-22T11:36:58;7.38;;;5.18;;
31382;SDS011;18014;49.228;11.102;2024-03-22T11:38:59;8.25;;;4.93;;
31382;SDS011;18014;49.228;11.102;2024-03-22T11:41:00;7.43;;;4.30;;
31382;SDS011;18014;49.228;11.102;2024-03-22T11:43:03;9.35;;;4.13;;